Time;durP1;ratioP1;P1;durP2;ratioP2;P2;SDS_P1;SDS_P2;PMS_P1;PMS_P2;Temp;Humidity;BMP_temperature;BMP_pressure;BME280_temperature;BME280_humidity;BME280_pressure;Samples;Min_cycle;Max_cycle;Signal;HPM_P1;HPM_P2
2021/08/24 00:02:08;;;;;;;6.63;5.32;;;;;;;23.39;43.50;99633.44;5092620;28;20016;-74
2021/08/24 00:04:33;;;;;;;7.35;5.07;;;;;;;22.91;43.58;99548.25;5092934;28;20512;-75
2021/08/24 00:06:59;;;;;;;7.55;5.75;;;;;;;23.05;43.47;99570.19;5092884;28;20020;-74
2021/08/24 00:09:24;;;;;;;5.95;4.85;;;;;;;23.34;43.53;99613.75;5092921;28;20411;-75
2021/08/24 00:11:49;;;;;;;6.28;5.30;;;;;;;23.30;43.53;99623.41;5092794;28;20502;-75
2021/08/24 00:14:15;;;;;;;6.20;5.20;;;;;;;23.26;43.60;99615.03;5092829;28;20533;-75
2021/08/24 00:16:41;;;;;;;10.13;5.68;;;;;;;23.12;43.79;99595.00;5092847;28;20047;-74
2021/08/24 00:19:09;;;;;;;6.38;5.30;;;;;;;23.22;43.80;99615.81;5092558;28;20024;-76
2021/08/24 00:21:36;;;;;;;8.02;5.45;;;;;;;22.92;43.83;99576.00;5092387;28;20052;-75
2021/08/24 00:24:03;;;;;;;6.93;5.30;;;;;;;23.20;44.01;99626.84;5092410;28;20458;-75
2021/08/24 00:26:28;;;;;;;8.15;5.88;;;;;;;23.08;44.10;99607.38;5092206;28;20552;-76
2021/08/24 00:28:54;;;;;;;6.40;5.30;;;;;;;23.18;44.13;99620.09;5092437;28;20107;-76
2021/08/24 00:31:19;;;;;;;5.82;5.32;;;;;;;22.77;44.11;99555.94;5092433;28;20103;-75
2021/08/24 00:33:44;;;;;;;7.43;5.30;;;;;;;22.92;44.21;99584.06;5092362;28;20024;-76
2021/08/24 00:36:14;;;;;;;7.28;5.43;;;;;;;22.98;44.14;99600.00;5092300;28;20031;-75
2021/08/24 00:38:40;;;;;;;5.85;5.25;;;;;;;22.95;44.26;99592.44;5092281;28;20024;-75
2021/08/24 00:41:06;;;;;;;7.18;5.53;;;;;;;23.01;44.18;99612.94;5092440;28;20035;-75
2021/08/24 00:43:34;;;;;;;6.65;5.20;;;;;;;22.78;44.30;99575.59;5092188;28;20028;-75
2021/08/24 00:46:31;;;;;;;7.32;5.18;;;;;;;22.85;44.64;99605.00;5091851;28;20023;-75
2021/08/24 00:49:12;;;;;;;7.32;5.20;;;;;;;22.79;44.85;99601.44;5092129;28;20020;-75
2021/08/24 00:51:41;;;;;;;7.63;5.20;;;;;;;22.77;44.78;99604.38;5092120;28;20047;-75
2021/08/24 00:54:12;;;;;;;5.90;5.30;;;;;;;22.74;44.83;99604.09;5090835;28;20027;-75
2021/08/24 00:56:40;;;;;;;7.28;5.32;;;;;;;22.38;44.86;99552.63;5092162;28;20020;-76
2021/08/24 00:59:07;;;;;;;6.70;5.85;;;;;;;22.35;44.97;99563.91;5092169;28;20035;-75
2021/08/24 01:01:34;;;;;;;6.88;5.13;;;;;;;22.58;45.13;99602.31;5090316;28;20021;-75
2021/08/24 01:04:00;;;;;;;6.55;5.18;;;;;;;22.12;45.20;99542.66;5091676;28;20039;-75
2021/08/24 01:06:25;;;;;;;9.90;5.55;;;;;;;22.56;45.24;99591.81;5091834;28;20023;-76
2021/08/24 01:08:57;;;;;;;7.40;6.20;;;;;;;22.60;45.18;99597.50;5091753;28;20076;-76
2021/08/24 01:11:40;;;;;;;;;;;;;;;22.32;45.67;99587.81;5090952;28;20106;-75
2021/08/24 01:14:43;;;;;;;6.57;5.93;;;;;;;22.37;45.55;99595.94;5091937;28;19923;-75
2021/08/24 01:17:21;;;;;;;6.32;5.28;;;;;;;22.20;45.61;99580.66;5091799;28;20019;-76
2021/08/24 01:20:17;;;;;;;7.47;5.78;;;;;;;22.32;45.87;99596.69;5091488;28;20052;-75
2021/08/24 01:22:51;;;;;;;7.55;5.55;;;;;;;22.32;45.85;99603.94;5091412;28;20032;-76
2021/08/24 01:25:30;;;;;;;10.38;5.50;;;;;;;22.33;45.67;99600.19;5091282;28;20046;-75
2021/08/24 01:28:03;;;;;;;8.40;5.75;;;;;;;22.26;45.84;99603.06;5090121;28;20439;-75
2021/08/24 01:30:58;;;;;;;7.22;5.75;;;;;;;21.84;45.91;99539.13;5090260;28;20023;-75
2021/08/24 01:33:41;;;;;;;6.03;5.30;;;;;;;22.23;45.99;99603.56;5091674;28;20032;-75
2021/08/24 01:36:23;;;;;;;8.13;5.90;;;;;;;22.17;45.97;99609.94;5091428;28;20036;-75
2021/08/24 01:38:49;;;;;;;8.85;6.13;;;;;;;22.10;46.22;99603.94;5091419;28;20024;-75
2021/08/24 01:41:21;;;;;;;10.73;6.53;;;;;;;22.10;46.41;99606.63;5091565;28;20032;-75
2021/08/24 01:44:01;;;;;;;8.57;6.00;;;;;;;22.07;46.37;99599.88;5091479;28;20028;-75
2021/08/24 01:46:51;;;;;;;6.78;5.95;;;;;;;22.00;46.68;99593.88;5091318;28;20513;-76
2021/08/24 01:49:20;;;;;;;7.30;5.80;;;;;;;21.99;46.75;99597.63;5091334;28;20031;-75
2021/08/24 01:51:53;;;;;;;9.88;6.20;;;;;;;21.82;46.73;99560.06;5091066;28;20020;-74
2021/08/24 01:54:38;;;;;;;7.60;5.97;;;;;;;21.97;46.90;99583.63;5091103;28;20031;-75
2021/08/24 01:57:07;;;;;;;7.05;6.00;;;;;;;22.04;46.91;99588.81;5091063;28;20412;-76
2021/08/24 01:59:49;;;;;;;7.13;6.20;;;;;;;21.72;47.41;99538.44;5094154;28;20412;-75
2021/08/24 02:02:20;;;;;;;9.15;6.38;;;;;;;22.01;47.23;99581.22;5095365;28;20122;-75
2021/08/24 02:04:55;;;;;;;9.52;6.20;;;;;;;22.01;47.23;99590.09;5095531;28;20034;-75
2021/08/24 02:07:22;;;;;;;9.80;6.80;;;;;;;21.75;47.52;99558.63;5095220;28;20042;-76
2021/08/24 02:09:53;;;;;;;9.55;6.40;;;;;;;21.87;47.60;99581.63;5095022;28;20044;-75
2021/08/24 02:12:23;;;;;;;9.63;6.43;;;;;;;21.53;47.84;99532.53;5095054;28;20407;-75
2021/08/24 02:14:49;;;;;;;10.88;6.85;;;;;;;21.65;47.98;99543.19;5094999;28;20032;-76
2021/08/24 02:17:17;;;;;;;10.77;7.03;;;;;;;21.88;47.85;99574.38;5095183;28;20562;-75
2021/08/24 02:20:24;;;;;;;9.80;6.35;;;;;;;21.88;47.91;99575.19;5095105;28;20028;-75
2021/08/24 02:22:56;;;;;;;7.75;6.28;;;;;;;21.89;47.71;99565.25;5064965;28;20047;-75
2021/08/24 02:25:28;;;;;;;9.55;7.13;;;;;;;21.89;47.89;99559.88;5094559;28;20107;-76
2021/08/24 02:27:59;;;;;;;8.30;6.90;;;;;;;21.78;48.30;99567.00;5094742;28;20031;-75
2021/08/24 02:30:27;;;;;;;;;;;;;;;21.52;48.84;99562.34;5093848;28;20424;-75
2021/08/24 02:32:52;;;;;;;9.60;6.50;;;;;;;21.27;48.33;99509.09;5094576;28;19914;-75
2021/08/24 02:35:26;;;;;;;9.02;6.72;;;;;;;21.67;48.43;99559.06;5094856;28;20020;-75
2021/08/24 02:38:04;;;;;;;9.32;6.95;;;;;;;21.70;48.63;99553.19;5094633;28;20024;-76
2021/08/24 02:40:52;;;;;;;8.25;6.65;;;;;;;21.72;48.54;99553.75;5094498;28;20098;-76
2021/08/24 02:43:35;;;;;;;8.20;6.72;;;;;;;21.67;48.63;99551.81;5094533;28;20024;-76
2021/08/24 02:46:12;;;;;;;9.18;6.97;;;;;;;21.59;49.11;99554.13;5094453;28;20023;-75
2021/08/24 02:48:40;;;;;;;9.27;6.72;;;;;;;21.28;49.07;99502.66;5094426;28;20047;-75
2021/08/24 02:51:07;;;;;;;8.57;7.68;;;;;;;21.56;49.05;99558.94;5094508;28;20508;-75
2021/08/24 02:53:37;;;;;;;7.35;6.25;;;;;;;21.55;49.00;99546.56;5094242;28;20020;-75
2021/08/24 02:56:03;;;;;;;8.65;7.13;;;;;;;21.33;48.91;99513.47;5094357;28;20024;-75
2021/08/24 02:58:28;;;;;;;8.75;7.22;;;;;;;21.48;48.96;99545.09;5094236;28;20024;-76
2021/08/24 03:00:54;;;;;;;8.73;7.03;;;;;;;21.24;49.13;99501.53;5093979;28;20012;-75
2021/08/24 03:03:19;;;;;;;6.97;6.32;;;;;;;21.50;49.16;99548.34;5093825;28;20398;-75
2021/08/24 03:05:45;;;;;;;7.93;7.13;;;;;;;21.23;49.22;99505.28;5092744;28;20107;-74
2021/08/24 03:08:12;;;;;;;7.63;6.47;;;;;;;21.13;48.97;99487.13;5094011;28;20020;-76
2021/08/24 03:10:41;;;;;;;7.85;6.95;;;;;;;21.13;49.13;99483.63;5093997;28;20511;-75
2021/08/24 03:13:13;;;;;;;7.70;6.95;;;;;;;21.50;49.26;99541.09;5094055;28;20118;-75
2021/08/24 03:15:49;;;;;;;8.55;7.00;;;;;;;21.05;49.50;99489.44;5093948;28;20107;-75
2021/08/24 03:18:23;;;;;;;13.25;7.50;;;;;;;21.39;49.66;99549.28;5093914;28;20458;-74
2021/08/24 03:20:54;;;;;;;9.88;6.72;;;;;;;20.93;49.45;99479.63;5093702;28;21143;-75
2021/08/24 03:23:21;;;;;;;9.77;7.07;;;;;;;21.36;49.71;99555.13;5093849;28;20024;-75
2021/08/24 03:25:48;;;;;;;11.10;7.07;;;;;;;21.40;49.67;99550.91;5093923;28;20024;-73
2021/08/24 03:28:17;;;;;;;8.52;7.25;;;;;;;21.42;49.44;99549.59;5093878;28;20059;-75
2021/08/24 03:30:43;;;;;;;9.90;7.60;;;;;;;21.43;49.55;99548.53;5093788;28;20509;-75
2021/08/24 03:33:11;;;;;;;8.43;7.53;;;;;;;21.37;49.52;99541.47;5093626;28;20035;-76
2021/08/24 03:35:36;;;;;;;9.13;7.72;;;;;;;21.37;49.91;99552.19;5093699;28;20103;-75
2021/08/24 03:38:02;;;;;;;11.15;7.07;;;;;;;21.36;49.71;99553.25;5093497;28;20557;-75
2021/08/24 03:40:28;;;;;;;10.82;7.57;;;;;;;21.36;49.79;99547.88;5093491;28;20028;-76
2021/08/24 03:42:55;;;;;;;12.60;7.45;;;;;;;21.42;49.78;99554.97;5093288;28;20043;-75
2021/08/24 03:45:21;;;;;;;9.30;7.20;;;;;;;21.41;49.79;99549.84;5093201;28;20141;-75
2021/08/24 03:47:46;;;;;;;10.48;8.27;;;;;;;21.46;49.61;99558.78;5093244;28;20572;-75
2021/08/24 03:50:12;;;;;;;8.95;6.80;;;;;;;21.43;49.74;99556.59;5093202;28;20382;-75
2021/08/24 03:52:37;;;;;;;10.00;7.30;;;;;;;21.34;49.86;99555.38;5093188;28;20049;-75
2021/08/24 03:55:04;;;;;;;10.52;7.93;;;;;;;21.20;50.00;99537.97;5093248;28;20109;-75
2021/08/24 03:57:29;;;;;;;9.55;7.85;;;;;;;21.27;50.17;99554.75;5093173;28;20028;-76
2021/08/24 03:59:56;;;;;;;14.32;7.72;;;;;;;21.26;50.39;99553.13;5093184;28;20058;-75
2021/08/24 04:02:23;;;;;;;9.20;8.18;;;;;;;20.96;50.44;99513.19;5092775;28;20031;-75
2021/08/24 04:04:49;;;;;;;9.32;8.35;;;;;;;21.25;50.51;99556.88;5092929;28;20024;-75
2021/08/24 04:07:15;;;;;;;12.80;8.35;;;;;;;20.92;50.55;99504.84;5092808;28;20027;-76
2021/08/24 04:09:40;;;;;;;10.48;7.95;;;;;;;21.14;50.56;99547.00;5092928;28;20110;-75
2021/08/24 04:12:06;;;;;;;9.98;8.75;;;;;;;21.17;50.68;99551.88;5092811;28;20016;-75
2021/08/24 04:14:32;;;;;;;12.52;9.52;;;;;;;21.13;50.83;99550.75;5092822;28;20023;-75
2021/08/24 04:16:57;;;;;;;11.65;9.10;;;;;;;20.91;50.94;99521.19;5092602;28;20028;-75
2021/08/24 04:19:23;;;;;;;18.63;16.63;;;;;;;21.05;50.78;99559.22;5092742;28;20052;-76
2021/08/24 04:21:48;;;;;;;19.70;17.27;;;;;;;20.68;51.01;99499.88;5092093;28;20897;-75
2021/08/24 04:24:14;;;;;;;18.45;16.52;;;;;;;21.08;50.87;99570.28;5092714;28;20033;-76
2021/08/24 04:26:39;;;;;;;16.52;14.82;;;;;;;21.10;50.67;99562.81;5092574;28;20027;-75
2021/08/24 04:29:05;;;;;;;18.65;13.57;;;;;;;20.73;50.69;99491.91;5092519;28;20027;-75
2021/08/24 04:31:35;;;;;;;14.65;13.13;;;;;;;20.79;50.73;99499.78;5091256;28;20016;-75
2021/08/24 04:34:01;;;;;;;17.48;13.65;;;;;;;21.13;50.71;99553.44;5092491;28;20028;-75
2021/08/24 04:36:26;;;;;;;20.98;14.48;;;;;;;20.78;50.79;99505.38;5091040;28;20481;-75
2021/08/24 04:38:52;;;;;;;17.33;15.45;;;;;;;20.88;50.94;99506.38;5092139;28;20027;-76
2021/08/24 04:41:17;;;;;;;21.77;15.90;;;;;;;21.02;50.75;99525.63;5090845;28;20035;-75
2021/08/24 04:43:43;;;;;;;19.48;16.08;;;;;;;21.36;50.62;99561.31;5092247;28;20023;-75
2021/08/24 04:46:08;;;;;;;17.98;14.77;;;;;;;21.26;50.55;99537.00;5092128;28;20045;-75
2021/08/24 04:48:33;;;;;;;14.48;13.07;;;;;;;21.49;50.46;99574.38;5092151;28;20019;-75
2021/08/24 04:51:00;;;;;;;16.48;14.48;;;;;;;21.52;50.42;99562.34;5091883;28;20099;-75
2021/08/24 04:53:26;;;;;;;15.32;13.82;;;;;;;21.06;50.52;99491.88;5091848;28;20032;-75
2021/08/24 04:55:54;;;;;;;16.27;12.23;;;;;;;21.08;50.91;99508.53;5091914;28;20465;-75
2021/08/24 04:58:20;;;;;;;16.98;10.90;;;;;;;21.44;50.97;99546.66;5091737;28;20043;-75
2021/08/24 05:00:45;;;;;;;13.55;11.25;;;;;;;21.52;51.10;99565.03;5091974;28;20115;-75
2021/08/24 05:03:10;;;;;;;13.40;9.95;;;;;;;21.38;51.45;99571.81;5091904;28;20472;-76
2021/08/24 05:05:36;;;;;;;14.50;10.60;;;;;;;21.23;51.89;99551.75;5090606;28;20085;-75
2021/08/24 05:08:02;;;;;;;13.18;9.27;;;;;;;21.07;51.95;99524.91;5074169;28;20020;-75
2021/08/24 05:10:28;;;;;;;15.20;9.50;;;;;;;21.03;51.89;99496.94;5071466;28;20031;-75
2021/08/24 05:12:54;;;;;;;12.10;9.23;;;;;;;21.52;51.86;99567.72;5079724;28;20027;-75
2021/08/24 05:15:19;;;;;;;14.60;10.15;;;;;;;21.48;51.98;99547.78;5070949;28;20078;-75
2021/08/24 05:17:50;;;;;;;14.27;10.40;;;;;;;21.69;52.32;99568.50;5070963;28;20009;-75
2021/08/24 05:20:17;;;;;;;14.35;9.98;;;;;;;21.69;52.69;99565.81;5078114;28;20107;-75
2021/08/24 05:22:44;;;;;;;13.82;9.00;;;;;;;21.81;52.57;99574.56;5090898;28;20081;-75
2021/08/24 05:25:10;;;;;;;12.82;9.07;;;;;;;21.78;52.46;99548.19;5091462;28;20020;-75
2021/08/24 05:27:36;;;;;;;14.85;9.43;;;;;;;21.93;52.55;99560.97;5091192;28;20554;-76
2021/08/24 05:30:08;;;;;;;11.27;8.93;;;;;;;22.03;52.96;99565.69;5091522;28;20023;-75
2021/08/24 05:32:34;;;;;;;11.65;8.75;;;;;;;20.68;52.75;99334.34;5089788;28;20020;-76
2021/08/24 05:34:59;;;;;;;12.15;9.18;;;;;;;21.74;52.67;99487.13;5091057;28;20462;-76
2021/08/24 05:37:24;;;;;;;11.85;9.80;;;;;;;22.02;52.89;99516.44;5091362;28;20024;-76
2021/08/24 05:39:50;;;;;;;12.25;9.10;;;;;;;22.31;52.95;99557.41;5089650;28;20040;-75
2021/08/24 05:42:15;;;;;;;12.82;9.45;;;;;;;22.35;52.98;99533.50;5089097;28;20047;-75
2021/08/24 05:44:41;;;;;;;12.30;8.85;;;;;;;22.56;53.09;99556.84;5072822;28;20154;-75
2021/08/24 05:47:06;;;;;;;14.20;8.75;;;;;;;22.38;53.14;99514.16;5082565;28;20047;-76
2021/08/24 05:49:35;;;;;;;11.65;8.98;;;;;;;22.74;53.21;99563.69;5079266;28;20099;-74
2021/08/24 05:52:01;;;;;;;13.30;9.38;;;;;;;22.51;53.13;99509.16;5083265;28;20032;-74
2021/08/24 05:54:27;;;;;;;12.35;8.73;;;;;;;22.94;53.27;99566.59;5079734;28;20028;-76
2021/08/24 05:56:52;;;;;;;13.65;9.35;;;;;;;23.04;53.47;99569.38;5076658;28;20028;-76
2021/08/24 05:59:18;;;;;;;15.00;9.10;;;;;;;22.98;53.52;99554.22;5087844;28;20092;-76
2021/08/24 06:01:43;;;;;;;15.85;9.43;;;;;;;22.87;53.44;99531.00;5084642;28;20039;-75
2021/08/24 06:04:08;;;;;;;12.25;7.70;;;;;;;23.18;53.78;99569.72;5088741;28;20020;-75
2021/08/24 06:06:38;;;;;;;10.20;8.15;;;;;;;23.26;53.65;99566.56;5088131;28;20412;-74
2021/08/24 06:09:06;;;;;;;11.50;8.20;;;;;;;23.38;53.67;99563.66;5086499;28;20573;-76
2021/08/24 06:11:35;;;;;;;11.32;7.50;;;;;;;23.47;53.68;99564.78;5086646;28;20015;-76
2021/08/24 06:14:02;;;;;;;11.90;8.40;;;;;;;23.53;53.80;99558.34;5089269;28;20411;-75
2021/08/24 06:16:28;;;;;;;9.65;7.78;;;;;;;23.33;54.00;99520.53;5090662;28;20028;-76
2021/08/24 06:18:54;;;;;;;11.77;9.20;;;;;;;23.44;54.05;99525.69;5089925;28;20405;-76
2021/08/24 06:21:19;;;;;;;10.18;7.38;;;;;;;23.73;53.92;99563.03;5090278;28;20025;-74
2021/08/24 06:23:46;;;;;;;10.75;7.78;;;;;;;23.83;54.00;99565.00;5088269;28;20081;-76
2021/08/24 06:26:12;;;;;;;8.43;7.63;;;;;;;23.56;53.86;99501.25;5075887;28;20031;-75
2021/08/24 06:28:38;;;;;;;9.55;7.25;;;;;;;24.03;53.60;99570.44;5085258;28;20024;-75
2021/08/24 06:31:04;;;;;;;10.18;7.57;;;;;;;24.12;53.40;99554.56;5072404;28;20073;-75
2021/08/24 06:33:35;;;;;;;8.10;6.70;;;;;;;24.11;53.31;99552.94;5080614;28;20401;-74
2021/08/24 06:36:00;;;;;;;9.25;7.88;;;;;;;24.03;52.81;99535.38;5085307;28;20024;-75
2021/08/24 06:38:26;;;;;;;8.07;7.28;;;;;;;24.12;52.43;99527.59;5088246;28;20107;-76
2021/08/24 06:40:52;;;;;;;10.32;8.18;;;;;;;24.02;52.60;99502.22;5082374;28;20498;-74
2021/08/24 06:43:18;;;;;;;9.30;7.72;;;;;;;24.22;52.43;99519.50;5089222;28;20032;-75
2021/08/24 06:45:44;;;;;;;10.00;9.02;;;;;;;24.48;52.44;99553.56;5089761;28;20428;-75
2021/08/24 06:48:09;;;;;;;10.18;8.90;;;;;;;24.37;52.65;99531.16;5092575;28;20058;-74
2021/08/24 06:50:36;;;;;;;12.13;9.50;;;;;;;24.65;52.76;99570.34;5089918;28;20046;-76
2021/08/24 06:53:02;;;;;;;11.05;9.02;;;;;;;24.55;52.83;99548.75;5092371;28;20032;-75
2021/08/24 06:55:31;;;;;;;11.85;9.32;;;;;;;24.47;52.91;99518.75;5089763;28;20077;-76
2021/08/24 06:57:57;;;;;;;12.73;8.88;;;;;;;24.61;52.68;99536.06;5093057;28;20024;-75
2021/08/24 07:00:24;;;;;;;12.05;9.32;;;;;;;24.80;52.01;99560.63;5093612;28;20516;-75
2021/08/24 07:02:50;;;;;;;9.60;8.57;;;;;;;24.88;51.96;99560.88;5093603;28;20027;-75
2021/08/24 07:05:18;;;;;;;15.68;9.07;;;;;;;25.01;51.37;99562.25;5084053;28;20032;-75
2021/08/24 07:07:43;;;;;;;9.10;7.63;;;;;;;24.76;51.29;99500.94;5075669;28;20146;-74
2021/08/24 07:10:10;;;;;;;9.27;8.38;;;;;;;24.89;51.35;99516.59;5086101;28;20477;-75
2021/08/24 07:12:36;;;;;;;9.63;8.63;;;;;;;25.25;51.11;99555.19;5089522;28;20012;-74
2021/08/24 07:15:03;;;;;;;8.98;8.07;;;;;;;25.32;50.36;99554.91;5090765;28;20562;-74
2021/08/24 07:17:28;;;;;;;12.05;8.27;;;;;;;25.39;50.08;99546.53;5090816;28;20028;-75
2021/08/24 07:19:54;;;;;;;9.95;8.13;;;;;;;25.47;49.80;99551.34;5092266;28;20031;-75
2021/08/24 07:22:20;;;;;;;11.82;8.77;;;;;;;25.51;49.78;99534.31;5089208;28;20059;-74
2021/08/24 07:24:45;;;;;;;11.82;8.27;;;;;;;25.56;49.48;99547.00;5092960;28;20376;-75
2021/08/24 07:27:11;;;;;;;9.38;7.47;;;;;;;25.48;49.22;99523.25;5087880;28;20023;-75
2021/08/24 07:29:36;;;;;;;10.02;9.05;;;;;;;25.67;48.72;99540.50;5094115;28;20031;-74
2021/08/24 07:32:02;;;;;;;9.88;7.78;;;;;;;25.45;48.07;99496.75;5089900;28;20016;-74
2021/08/24 07:34:28;;;;;;;10.43;8.05;;;;;;;25.76;48.49;99540.72;5087985;28;20028;-75
2021/08/24 07:36:53;;;;;;;9.27;7.00;;;;;;;25.86;48.24;99536.06;5088746;28;20024;-75
2021/08/24 07:39:19;;;;;;;7.68;6.82;;;;;;;25.74;47.61;99502.34;5086954;28;20020;-75
2021/08/24 07:41:44;;;;;;;10.57;8.15;;;;;;;26.08;47.45;99537.59;5090654;28;20408;-74
2021/08/24 07:44:09;;;;;;;10.68;7.60;;;;;;;26.20;47.34;99546.19;5091060;28;20032;-75
2021/08/24 07:46:35;;;;;;;9.30;7.65;;;;;;;26.24;46.53;99539.94;5083736;28;20021;-74
2021/08/24 07:49:00;;;;;;;8.40;6.78;;;;;;;26.28;46.26;99526.66;5072831;28;20450;-75
2021/08/24 07:51:26;;;;;;;9.15;7.85;;;;;;;26.35;46.29;99532.59;5072164;28;20028;-75
2021/08/24 07:53:52;;;;;;;8.00;7.20;;;;;;;26.46;46.02;99539.53;5079675;28;20047;-74
2021/08/24 07:56:19;;;;;;;10.45;7.97;;;;;;;26.55;46.05;99539.75;5091637;28;20064;-75
2021/08/24 07:58:45;;;;;;;7.90;7.10;;;;;;;26.60;45.81;99535.09;5090877;28;20403;-74
2021/08/24 08:01:10;;;;;;;8.77;7.88;;;;;;;26.49;44.88;99511.09;5081095;28;20107;-75
2021/08/24 08:03:36;;;;;;;11.18;8.43;;;;;;;26.72;44.54;99532.00;5088567;28;20071;-75
2021/08/24 08:06:02;;;;;;;7.88;7.10;;;;;;;26.56;44.26;99490.72;5085314;28;20093;-75
2021/08/24 08:08:27;;;;;;;7.95;6.95;;;;;;;26.69;43.85;99499.25;5088767;28;20032;-75
2021/08/24 08:10:56;;;;;;;8.38;6.85;;;;;;;26.95;43.43;99533.19;5079083;28;20036;-74
2021/08/24 08:13:23;;;;;;;10.23;9.27;;;;;;;26.81;43.24;99502.44;5089486;28;20054;-74
2021/08/24 08:15:48;;;;;;;10.18;9.18;;;;;;;26.86;43.47;99499.66;5092031;28;20111;-74
2021/08/24 08:18:14;;;;;;;9.50;8.25;;;;;;;27.19;42.76;99519.69;5089780;28;20718;-74
2021/08/24 08:20:40;;;;;;;9.38;7.03;;;;;;;27.26;42.32;99520.13;5095260;28;20028;-74
2021/08/24 08:23:07;;;;;;;6.90;6.30;;;;;;;27.16;41.88;99504.78;5104805;27;20090;-73
2021/08/24 08:25:33;;;;;;;9.63;6.78;;;;;;;27.44;40.42;99519.38;5089768;28;20035;-73
2021/08/24 08:27:59;;;;;;;9.98;8.98;;;;;;;27.37;40.18;99491.00;5092114;28;20040;-72
2021/08/24 08:30:24;;;;;;;9.55;8.02;;;;;;;27.67;39.79;99509.66;5091897;28;20027;-75
2021/08/24 08:32:50;;;;;;;8.15;7.38;;;;;;;27.74;39.46;99488.41;5089759;28;20024;-76
2021/08/24 08:35:17;;;;;;;11.18;9.88;;;;;;;27.67;39.45;99455.41;5091607;28;20034;-74
2021/08/24 08:37:43;;;;;;;8.65;6.82;;;;;;;28.15;38.89;99509.53;5092007;28;20081;-74
2021/08/24 08:40:11;;;;;;;8.07;6.78;;;;;;;28.26;38.35;99504.81;5091435;28;20024;-75
2021/08/24 08:42:52;;;;;;;7.68;6.82;;;;;;;28.20;37.01;99485.00;5087575;28;20048;-75
2021/08/24 08:45:30;;;;;;;7.35;6.75;;;;;;;28.38;37.25;99500.53;5090270;28;20508;-73
2021/08/24 08:48:08;;;;;;;12.25;10.75;;;;;;;28.54;36.83;99506.53;5091698;28;20028;-74
2021/08/24 08:50:49;;;;;;;7.95;7.22;;;;;;;28.45;34.64;99462.94;5091659;28;20031;-75
2021/08/24 08:53:23;;;;;;;10.55;6.30;;;;;;;28.82;35.84;99501.16;5091540;28;20073;-75
2021/08/24 08:56:04;;;;;;;7.55;6.38;;;;;;;28.94;34.90;99496.06;5091227;28;20023;-73
2021/08/24 08:58:58;;;;;;;8.40;5.25;;;;;;;29.05;32.98;99497.50;5071036;28;20059;-74
2021/08/24 09:01:37;;;;;;;7.05;6.35;;;;;;;28.72;33.42;99451.31;5078346;28;20028;-74
2021/08/24 09:04:22;;;;;;;7.78;7.07;;;;;;;29.27;32.39;99486.75;5090023;28;20092;-75
2021/08/24 09:06:52;;;;;;;5.47;4.80;;;;;;;29.47;32.68;99482.81;5091105;28;20057;-74
2021/08/24 09:09:20;;;;;;;4.93;4.47;;;;;;;29.25;31.68;99425.59;5091321;28;20047;-75
2021/08/24 09:11:48;;;;;;;8.18;5.15;;;;;;;29.59;31.60;99444.22;5091496;28;20524;-75
2021/08/24 09:14:18;;;;;;;7.50;5.97;;;;;;;29.92;30.98;99483.75;5091321;28;20051;-75
2021/08/24 09:16:58;;;;;;;8.45;7.10;;;;;;;30.12;30.96;99479.78;5090155;28;20020;-75
2021/08/24 09:19:37;;;;;;;9.75;6.25;;;;;;;30.28;30.41;99489.19;5091409;28;20093;-73
2021/08/24 09:22:05;;;;;;;9.95;8.80;;;;;;;30.45;29.82;99477.63;5091077;28;20111;-76
2021/08/24 09:24:31;;;;;;;7.05;6.25;;;;;;;30.24;28.97;99431.00;5091283;28;20107;-77
2021/08/24 09:27:21;;;;;;;6.00;5.38;;;;;;;30.81;28.55;99468.56;5090770;28;20109;-79
2021/08/24 09:29:49;;;;;;;8.63;5.30;;;;;;;30.61;28.13;99423.59;5089792;28;20038;-80
2021/08/24 09:32:21;;;;;;;5.25;4.38;;;;;;;31.00;27.60;99463.69;5091248;28;20117;-76
2021/08/24 09:34:49;;;;;;;5.82;5.22;;;;;;;31.05;27.29;99460.81;5086163;28;20024;-80
2021/08/24 09:37:22;;;;;;;6.28;4.03;;;;;;;31.03;26.95;99471.22;5088504;28;20098;-76
2021/08/24 09:40:03;;;;;;;5.05;4.47;;;;;;;31.01;27.08;99445.41;5087707;28;20505;-77
2021/08/24 09:42:43;;;;;;;6.20;5.30;;;;;;;31.25;27.31;99456.75;5076818;28;20486;-78
2021/08/24 09:45:18;;;;;;;6.95;5.28;;;;;;;31.45;26.70;99461.63;5086135;28;20097;-77
2021/08/24 09:47:51;;;;;;;5.25;4.70;;;;;;;31.48;26.80;99452.81;5089614;28;20039;-78
2021/08/24 09:50:17;;;;;;;6.70;6.07;;;;;;;31.43;26.96;99431.13;5081661;28;20061;-79
2021/08/24 09:52:48;;;;;;;6.07;5.00;;;;;;;31.85;27.09;99447.88;5072045;28;20016;-78
2021/08/24 09:55:18;;;;;;;;;;;;;;;32.11;27.11;99450.63;5088636;28;20044;-78
2021/08/24 09:57:52;;;;;;;5.35;4.85;;;;;;;32.16;26.59;99421.22;5090742;28;20417;-78
2021/08/24 10:00:20;;;;;;;5.90;4.93;;;;;;;32.51;26.16;99443.03;5077740;28;20386;-78
2021/08/24 10:02:54;;;;;;;6.40;5.80;;;;;;;32.65;26.00;99446.34;5070330;28;20028;-79
2021/08/24 10:05:22;;;;;;;5.65;4.70;;;;;;;32.85;25.27;99437.50;5087688;28;20032;-78
2021/08/24 10:07:51;;;;;;;8.07;6.75;;;;;;;32.83;25.27;99431.56;5088810;28;20526;-79
2021/08/24 10:10:28;;;;;;;8.65;6.47;;;;;;;32.96;25.44;99407.03;5089249;28;20500;-78
2021/08/24 10:12:57;;;;;;;6.30;4.93;;;;;;;33.16;24.71;99404.34;5087686;28;20098;-78
2021/08/24 10:15:37;;;;;;;7.40;4.95;;;;;;;33.18;24.48;99420.44;5087892;28;20024;-78
2021/08/24 10:18:13;;;;;;;5.30;4.53;;;;;;;33.46;23.67;99421.59;5087068;28;20125;-78
2021/08/24 10:20:56;;;;;;;6.68;4.40;;;;;;;33.43;23.92;99424.97;5089348;28;20100;-78
2021/08/24 10:23:37;;;;;;;9.25;4.50;;;;;;;33.44;23.15;99423.03;5093738;28;20047;-74
2021/08/24 10:26:06;;;;;;;5.65;4.18;;;;;;;33.38;23.68;99400.53;5094646;28;20101;-73
2021/08/24 10:28:34;;;;;;;5.28;4.70;;;;;;;33.42;23.62;99417.09;5092351;28;20436;-75
2021/08/24 10:31:27;;;;;;;7.85;4.72;;;;;;;33.53;22.97;99412.03;5091471;28;20443;-73
2021/08/24 10:34:04;;;;;;;8.27;4.35;;;;;;;33.70;23.03;99415.44;5086872;28;20039;-74
2021/08/24 10:36:49;;;;;;;8.18;5.47;;;;;;;34.04;23.34;99419.84;5084520;28;20028;-75
2021/08/24 10:39:20;;;;;;;6.95;5.90;;;;;;;34.27;22.78;99419.50;5093195;28;20032;-74
2021/08/24 10:42:04;;;;;;;4.90;4.47;;;;;;;34.45;21.37;99407.22;5092362;28;20039;-74
2021/08/24 10:44:41;;;;;;;4.78;4.00;;;;;;;34.50;21.66;99397.97;5089244;28;20019;-73
2021/08/24 10:47:14;;;;;;;6.85;6.00;;;;;;;34.22;21.68;99308.16;5088774;28;20092;-74
2021/08/24 10:49:40;;;;;;;5.82;4.30;;;;;;;34.30;21.25;99333.84;5087365;28;20024;-76
2021/08/24 10:52:19;;;;;;;5.78;3.97;;;;;;;34.96;20.90;99394.84;5083943;28;20413;-75
2021/08/24 10:55:09;;;;;;;5.28;4.10;;;;;;;34.95;20.94;99365.03;5086487;28;20024;-72
2021/08/24 10:57:59;;;;;;;4.68;4.25;;;;;;;35.32;20.68;99398.72;5074091;28;20043;-73
2021/08/24 11:00:43;;;;;;;8.05;5.18;;;;;;;35.47;21.05;99395.25;5087090;28;20114;-78
2021/08/24 11:03:44;;;;;;;6.22;5.32;;;;;;;35.65;20.63;99395.78;5091469;28;20043;-78
2021/08/24 11:06:50;;;;;;;8.60;4.78;;;;;;;35.84;20.14;99392.44;5093776;28;20020;-79
2021/08/24 11:09:52;;;;;;;5.43;4.90;;;;;;;35.90;21.28;99375.34;5073355;28;20444;-79
2021/08/24 11:12:27;;;;;;;7.88;5.25;;;;;;;35.96;20.63;99381.41;5088270;28;20436;-78
2021/08/24 11:15:07;;;;;;;5.65;4.25;;;;;;;36.06;20.73;99382.84;5091490;28;20089;-78
2021/08/24 11:18:23;;;;;;;5.93;4.53;;;;;;;36.06;20.65;99377.34;5082700;28;20036;-78
2021/08/24 11:20:57;;;;;;;4.55;4.05;;;;;;;35.92;20.12;99375.81;5053360;28;20063;-79
2021/08/24 11:23:34;;;;;;;8.32;7.30;;;;;;;36.00;20.32;99379.53;5093508;28;20082;-73
2021/08/24 11:26:11;;;;;;;9.90;4.82;;;;;;;35.91;20.39;99371.47;5093282;28;20043;-74
2021/08/24 11:28:55;;;;;;;6.75;5.35;;;;;;;36.07;20.36;99377.00;5092312;28;20028;-74
2021/08/24 11:31:30;;;;;;;5.13;4.63;;;;;;;36.15;20.21;99365.03;5086906;28;20485;-72
2021/08/24 11:34:04;;;;;;;4.80;4.40;;;;;;;35.88;19.93;99328.19;5089662;28;20078;-74
2021/08/24 11:36:39;;;;;;;6.65;4.68;;;;;;;36.37;19.61;99362.84;5089320;28;20035;-74
2021/08/24 11:39:26;;;;;;;7.75;7.05;;;;;;;36.35;19.79;99360.47;5079109;28;20036;-72
2021/08/24 11:41:58;;;;;;;7.15;6.40;;;;;;;35.96;19.73;99307.19;5072837;28;20107;-74
2021/08/24 11:44:51;;;;;;;7.78;6.57;;;;;;;36.27;19.79;99353.16;5071950;28;20035;-74
2021/08/24 11:47:23;;;;;;;6.00;5.32;;;;;;;36.52;19.37;99354.63;5081552;28;20028;-73
2021/08/24 11:49:59;;;;;;;5.32;4.82;;;;;;;36.38;18.44;99347.97;5078259;28;20493;-75